Pleasant Hill, Illinois
Current Conditions -  °F | °C
As of 5:15 AM on Tuesday 21 Oct 2014 (Local Time) from KPPQ Reporting Station
Clear Clear  
Wind Chill: 45°   Ceiling: Unl
Heat Index: 45°   Visibility: 10mi
Dew Point: 42°   Wind: 3mph
Humidity: 88%   Direction: 320°NW
Pressure: 30.08"   Gusts: NA
Location:  39.44°N, 90.87°W
Report Text: KPPQ 211015Z AUTO 32003KT 10SM CLR 07/05 A3008 RMK AO2 T00720054
Loading
Personal Weather Stations






























Interactive Weather Map New forecast layout! Learn more

10-Day Weather Forecast

Advertisements
Track Severe Weather on mobile